Time;durP1;ratioP1;P1;durP2;ratioP2;P2;SDS_P1;SDS_P2;PMS_P1;PMS_P2;Temp;Humidity;BMP_temperature;BMP_pressure;BME280_temperature;BME280_humidity;BME280_pressure;Samples;Min_cycle;Max_cycle;Signal;HPM_P1;HPM_P2
2021/04/03 00:00:00;;;;;;;37.97;24.40;;;333.00;2329.60;;;;;;4941488;29;20032;-81
2021/04/03 00:02:27;;;;;;;34.22;23.88;;;332.90;2329.60;;;;;;4943172;28;20049;-80
2021/04/03 00:04:53;;;;;;;37.78;24.33;;;332.90;2329.60;;;;;;4953580;28;20130;-84
2021/04/03 00:07:19;;;;;;;42.47;27.65;;;332.90;2329.60;;;;;;4953928;28;20118;-83
2021/04/03 00:09:45;;;;;;;40.05;26.30;;;332.90;2329.60;;;;;;4942814;29;20109;-85
2021/04/03 00:12:10;;;;;;;39.78;26.55;;;332.90;2329.60;;;;;;4955027;29;20038;-79
2021/04/03 00:14:36;;;;;;;39.72;26.67;;;333.00;2329.60;;;;;;4948959;28;20461;-78
2021/04/03 00:17:02;;;;;;;39.90;27.77;;;332.80;2329.60;;;;;;4947793;29;20055;-82
2021/04/03 00:19:28;;;;;;;42.15;28.73;;;307.40;2304.00;;;;;;4955047;28;20031;-82
2021/04/03 00:21:54;;;;;;;40.95;27.50;;;308.00;2304.00;;;;;;4955155;28;20152;-83
2021/04/03 00:24:20;;;;;;;47.53;31.13;;;332.80;2329.60;;;;;;4946483;28;20027;-84
2021/04/03 00:26:46;;;;;;;41.72;28.60;;;308.00;2304.00;;;;;;4942817;29;20032;-82
2021/04/03 00:29:11;;;;;;;46.00;29.42;;;308.10;2304.00;;;;;;4951750;28;20034;-85
2021/04/03 00:31:37;;;;;;;50.90;31.30;;;307.90;2304.00;;;;;;4949789;28;20035;-84
2021/04/03 00:34:03;;;;;;;51.38;32.08;;;307.80;2304.00;;;;;;4944325;28;20042;-83
2021/04/03 00:36:29;;;;;;;45.67;29.85;;;307.90;2304.00;;;;;;4940131;28;20035;-84
2021/04/03 00:38:55;;;;;;;40.83;26.77;;;308.10;2304.00;;;;;;4946702;28;20079;-79
2021/04/03 00:41:20;;;;;;;40.35;27.35;;;308.10;2304.00;;;;;;4936568;28;20031;-84
2021/04/03 00:43:46;;;;;;;37.08;25.83;;;332.80;2329.60;;;;;;4935731;28;20078;-77
2021/04/03 00:46:12;;;;;;;35.80;25.88;;;332.90;2329.60;;;;;;4950382;28;20035;-85
2021/04/03 00:48:38;;;;;;;37.03;25.63;;;333.00;2329.60;;;;;;4946107;28;20035;-82
2021/04/03 00:51:04;;;;;;;34.15;25.20;;;332.90;2329.60;;;;;;4947071;28;20535;-81
2021/04/03 00:53:31;;;;;;;39.15;26.90;;;333.00;2329.60;;;;;;4951210;28;20067;-80
2021/04/03 00:55:57;;;;;;;35.28;24.40;;;332.90;2329.60;;;;;;4948177;28;20039;-80
2021/04/03 00:58:23;;;;;;;34.80;26.45;;;332.80;2329.60;;;;;;4937362;28;20094;-83
2021/04/03 01:00:50;;;;;;;35.00;24.90;;;308.10;2304.00;;;;;;4951345;28;20032;-84
2021/04/03 01:03:16;;;;;;;34.40;23.60;;;308.10;2304.00;;;;;;4943125;28;20027;-84
2021/04/03 01:05:42;;;;;;;36.33;25.17;;;332.80;2329.60;;;;;;4942223;28;20031;-82
2021/04/03 01:08:10;;;;;;;40.05;27.08;;;332.80;2329.60;;;;;;4945061;28;20090;-84
2021/04/03 01:10:39;;;;;;;38.80;24.75;;;332.80;2329.60;;;;;;4941350;28;20063;-81
2021/04/03 01:13:34;;;;;;;40.65;27.95;;;308.10;2304.00;;;;;;4948084;28;20055;-85
2021/04/03 01:16:26;;;;;;;35.70;25.25;;;308.00;2304.00;;;;;;4948181;28;20062;-83
2021/04/03 01:19:14;;;;;;;36.72;26.40;;;307.90;2304.00;;;;;;4946101;28;20082;-83
2021/04/03 01:22:08;;;;;;;36.25;25.13;;;307.90;2304.00;;;;;;4924787;29;20031;-80
2021/04/03 01:25:00;;;;;;;37.00;27.35;;;307.90;2304.00;;;;;;4935266;28;20028;-79
2021/04/03 01:27:27;;;;;;;38.78;26.95;;;307.80;2304.00;;;;;;4950599;28;20031;-78
2021/04/03 01:30:13;;;;;;;42.03;28.38;;;307.90;2304.00;;;;;;4949821;28;20027;-85
2021/04/03 01:33:06;;;;;;;34.35;25.98;;;308.10;2304.00;;;;;;4944456;28;20027;-79
2021/04/03 01:35:38;;;;;;;36.47;26.30;;;308.10;2304.00;;;;;;4952183;28;20024;-83
2021/04/03 01:38:28;;;;;;;37.17;25.23;;;332.80;2329.60;;;;;;4948007;28;20273;-85
2021/04/03 01:40:55;;;;;;;39.78;26.27;;;332.80;2329.60;;;;;;4950257;28;20038;-82
2021/04/03 01:43:23;;;;;;;39.22;27.60;;;308.00;2304.00;;;;;;4948567;28;20027;-77
2021/04/03 01:45:54;;;;;;;38.35;27.13;;;307.90;2304.00;;;;;;4949828;29;20031;-80
2021/04/03 01:48:21;;;;;;;36.88;27.65;;;307.90;2304.00;;;;;;4943666;28;20115;-79
2021/04/03 01:50:48;;;;;;;34.50;25.63;;;307.80;2304.00;;;;;;4940901;28;20090;-76
2021/04/03 01:53:14;;;;;;;29.05;23.27;;;307.80;2304.00;;;;;;4952819;28;20511;-82
2021/04/03 01:55:40;;;;;;;36.63;25.10;;;307.80;2304.00;;;;;;4936540;29;20515;-82
2021/04/03 01:58:07;;;;;;;33.25;24.38;;;307.70;2304.00;;;;;;4954257;29;20057;-83
2021/04/03 02:00:33;;;;;;;36.65;25.52;;;307.60;2304.00;;;;;;4948009;28;20027;-84
2021/04/03 02:03:00;;;;;;;34.50;24.58;;;307.60;2304.00;;;;;;4950934;28;20031;-83
2021/04/03 02:05:26;;;;;;;36.40;25.77;;;307.60;2304.00;;;;;;4939852;28;20035;-84
2021/04/03 02:07:55;;;;;;;31.38;23.38;;;307.60;2304.00;;;;;;4951103;28;20047;-85
2021/04/03 02:10:27;;;;;;;37.60;26.02;;;307.60;2304.00;;;;;;4952045;28;20455;-80
2021/04/03 02:12:54;;;;;;;45.90;29.38;;;307.50;2304.00;;;;;;4938436;28;20052;-84
2021/04/03 02:15:22;;;;;;;38.63;25.95;;;307.40;2304.00;;;;;;4951256;28;20450;-81
2021/04/03 02:17:51;;;;;;;41.72;26.88;;;307.50;2304.00;;;;;;4953028;28;20035;-83
2021/04/03 02:20:17;;;;;;;40.35;26.52;;;307.50;2304.00;;;;;;4941982;28;20020;-80
2021/04/03 02:22:43;;;;;;;39.22;25.55;;;307.50;2304.00;;;;;;4954106;28;20027;-84
2021/04/03 02:25:12;;;;;;;42.38;29.00;;;307.50;2304.00;;;;;;4946225;28;20027;-82
2021/04/03 02:27:39;;;;;;;46.42;31.00;;;307.40;2304.00;;;;;;4942883;28;20031;-78
2021/04/03 02:30:15;;;;;;;40.60;28.35;;;307.20;2304.00;;;;;;4952368;28;20028;-83
2021/04/03 02:32:42;;;;;;;36.35;26.83;;;307.30;2304.00;;;;;;4943862;28;20456;-77
2021/04/03 02:35:08;;;;;;;40.60;27.27;;;307.30;2304.00;;;;;;4951035;28;20023;-82
2021/04/03 02:37:34;;;;;;;38.03;27.30;;;307.20;2304.00;;;;;;4949097;28;20045;-79
2021/04/03 02:40:00;;;;;;;39.70;27.20;;;307.40;2304.00;;;;;;4943258;28;20029;-81
2021/04/03 02:42:28;;;;;;;39.67;28.30;;;307.40;2304.00;;;;;;4947113;28;20020;-81
2021/04/03 02:45:02;;;;;;;43.17;29.17;;;307.30;2304.00;;;;;;4950091;28;20095;-85
2021/04/03 02:47:35;;;;;;;40.83;29.15;;;307.30;2304.00;;;;;;4956180;28;20118;-83
2021/04/03 02:50:03;;;;;;;;;;;282.50;2278.40;;;;;;4946864;28;20025;-79
2021/04/03 02:52:31;;;;;;;42.22;29.13;;;282.40;2278.40;;;;;;4951742;28;19911;-84
2021/04/03 02:54:58;;;;;;;50.80;32.75;;;282.20;2278.40;;;;;;4952208;28;20027;-80
2021/04/03 02:57:25;;;;;;;48.08;31.70;;;282.10;2278.40;;;;;;4951558;28;20043;-85
2021/04/03 02:59:55;;;;;;;49.70;32.10;;;282.10;2278.40;;;;;;4948837;28;20094;-85
2021/04/03 03:02:23;;;;;;;46.50;31.40;;;282.00;2278.40;;;;;;4950133;28;20068;-82
2021/04/03 03:04:50;;;;;;;42.03;29.30;;;;;;;;;;4944378;28;20032;-75
2021/04/03 03:07:17;;;;;;;50.42;32.83;;;282.10;2278.40;;;;;;4942698;28;20482;-83
2021/04/03 03:09:46;;;;;;;42.28;30.02;;;281.80;2278.40;;;;;;4956343;28;20038;-80
2021/04/03 03:12:14;;;;;;;37.78;27.85;;;281.70;2278.40;;;;;;4940192;28;20394;-82
2021/04/03 03:14:42;;;;;;;40.92;27.95;;;281.60;2278.40;;;;;;4945658;28;20027;-79
2021/04/03 03:17:13;;;;;;;41.70;25.80;;;281.60;2278.40;;;;;;4944815;29;20058;-84
2021/04/03 03:19:40;;;;;;;45.00;29.75;;;281.60;2278.40;;;;;;4934383;29;20020;-77
2021/04/03 03:22:07;;;;;;;41.13;27.45;;;256.80;2252.80;;;;;;4940996;29;20039;-77
2021/04/03 03:24:37;;;;;;;36.38;26.52;;;256.70;2252.80;;;;;;4922355;29;20038;-84
2021/04/03 03:27:05;;;;;;;37.10;25.33;;;256.70;2252.80;;;;;;4945742;29;20090;-78
2021/04/03 03:29:35;;;;;;;35.05;24.75;;;256.70;2252.80;;;;;;4934789;29;20041;-76
2021/04/03 03:32:01;;;;;;;37.83;22.85;;;256.80;2252.80;;;;;;4932912;29;20065;-82
2021/04/03 03:34:28;;;;;;;33.10;22.50;;;256.80;2252.80;;;;;;4949056;29;20020;-83
2021/04/03 03:36:54;;;;;;;32.97;21.65;;;256.80;2252.80;;;;;;4934927;29;20035;-77
2021/04/03 03:39:20;;;;;;;28.75;20.67;;;256.80;2252.80;;;;;;4937088;29;20042;-79
2021/04/03 03:41:47;;;;;;;32.17;22.50;;;256.70;2252.80;;;;;;4936112;29;20028;-77
2021/04/03 03:44:13;;;;;;;28.30;20.88;;;256.90;2252.80;;;;;;4938513;29;20024;-83
2021/04/03 03:46:39;;;;;;;29.00;20.05;;;256.90;2252.80;;;;;;4937696;29;20031;-83
2021/04/03 03:49:05;;;;;;;35.55;23.55;;;256.90;2252.80;;;;;;4924917;29;20036;-81
2021/04/03 03:51:32;;;;;;;30.67;21.15;;;256.90;2252.80;;;;;;4943726;29;20110;-81
2021/04/03 03:53:58;;;;;;;30.42;19.58;;;256.90;2252.80;;;;;;4934559;29;20363;-83
2021/04/03 03:56:24;;;;;;;25.63;19.55;;;281.60;2278.40;;;;;;4944924;29;20091;-78
2021/04/03 03:58:50;;;;;;;31.38;21.20;;;281.60;2278.40;;;;;;4940724;29;20058;-81
2021/04/03 04:01:16;;;;;;;24.23;18.10;;;256.90;2252.80;;;;;;4952521;29;20035;-80
2021/04/03 04:03:42;;;;;;;26.65;17.95;;;281.60;2278.40;;;;;;4940283;29;20038;-83
2021/04/03 04:06:08;;;;;;;27.63;19.35;;;281.60;2278.40;;;;;;4934610;29;20363;-85
2021/04/03 04:08:33;;;;;;;25.42;18.15;;;281.60;2278.40;;;;;;4916396;29;20127;-75
2021/04/03 04:11:00;;;;;;;25.13;17.27;;;281.70;2278.40;;;;;;4935698;29;20035;-82
2021/04/03 04:13:25;;;;;;;24.70;18.35;;;281.70;2278.40;;;;;;4938764;29;20079;-82
2021/04/03 04:15:54;;;;;;;27.73;18.77;;;281.80;2278.40;;;;;;4932478;29;20048;-83
2021/04/03 04:18:20;;;;;;;23.77;17.63;;;281.90;2278.40;;;;;;4922783;29;20524;-79
2021/04/03 04:20:46;;;;;;;25.60;18.40;;;282.10;2278.40;;;;;;4925954;29;20103;-77
2021/04/03 04:23:12;;;;;;;24.02;17.75;;;282.10;2278.40;;;;;;4929717;29;20034;-83
2021/04/03 04:25:38;;;;;;;27.00;18.10;;;282.10;2278.40;;;;;;4946457;29;20020;-85
2021/04/03 04:28:03;;;;;;;24.63;18.77;;;282.30;2278.40;;;;;;4933360;29;20035;-78
2021/04/03 04:30:29;;;;;;;26.17;19.17;;;282.30;2278.40;;;;;;4927275;29;20035;-83
2021/04/03 04:32:55;;;;;;;36.28;26.98;;;282.40;2278.40;;;;;;4930705;29;20071;-84
2021/04/03 04:35:20;;;;;;;41.38;30.23;;;282.40;2278.40;;;;;;4925931;29;20031;-83
2021/04/03 04:37:46;;;;;;;26.27;18.60;;;282.50;2278.40;;;;;;4928754;29;20490;-83
2021/04/03 04:40:14;;;;;;;22.95;17.23;;;282.30;2278.40;;;;;;4920825;29;20076;-79
2021/04/03 04:42:42;;;;;;;22.63;16.50;;;282.30;2278.40;;;;;;4927092;29;20090;-76
2021/04/03 04:45:10;;;;;;;23.27;15.50;;;282.20;2278.40;;;;;;4921530;29;20031;-77
2021/04/03 04:47:36;;;;;;;20.95;15.63;;;282.20;2278.40;;;;;;4929415;29;20445;-77
2021/04/03 04:50:03;;;;;;;21.70;16.15;;;282.20;2278.40;;;;;;4930870;29;20032;-75
2021/04/03 04:52:29;;;;;;;23.70;16.73;;;282.30;2278.40;;;;;;4919244;29;20035;-82
2021/04/03 04:54:55;;;;;;;22.25;16.00;;;282.30;2278.40;;;;;;4929447;29;20031;-82
2021/04/03 04:57:21;;;;;;;22.48;15.57;;;282.20;2278.40;;;;;;4926242;29;20031;-82
2021/04/03 04:59:46;;;;;;;20.58;15.35;;;282.10;2278.40;;;;;;4917827;29;20035;-80
2021/04/03 05:02:12;;;;;;;22.77;15.68;;;281.90;2278.40;;;;;;4929721;29;20038;-84
2021/04/03 05:04:38;;;;;;;19.73;14.25;;;281.90;2278.40;;;;;;4929528;29;20031;-79
2021/04/03 05:07:04;;;;;;;20.27;15.88;;;281.90;2278.40;;;;;;4925206;29;20024;-80
2021/04/03 05:09:29;;;;;;;26.10;17.10;;;281.80;2278.40;;;;;;4930588;29;20104;-75
2021/04/03 05:11:55;;;;;;;23.55;16.95;;;256.90;2252.80;;;;;;4935905;29;20028;-78
2021/04/03 05:14:21;;;;;;;22.08;15.70;;;256.60;2252.80;;;;;;4929433;29;20035;-76
2021/04/03 05:16:46;;;;;;;26.08;17.15;;;256.60;2252.80;;;;;;4947636;28;20051;-77
2021/04/03 05:19:12;;;;;;;24.98;17.58;;;256.40;2252.80;;;;;;4947769;28;20533;-79
2021/04/03 05:21:38;;;;;;;21.23;15.93;;;256.30;2252.80;;;;;;4948748;28;20031;-78
2021/04/03 05:24:04;;;;;;;27.23;17.83;;;256.30;2252.80;;;;;;4943987;28;20027;-76
2021/04/03 05:26:30;;;;;;;24.15;17.67;;;256.10;2252.80;;;;;;4949784;28;20038;-76
2021/04/03 05:28:55;;;;;;;27.00;18.65;;;231.30;2252.80;;;;;;4950726;28;20019;-76
2021/04/03 05:31:21;;;;;;;29.42;19.55;;;256.10;2252.80;;;;;;4949635;28;20094;-74
2021/04/03 05:33:50;;;;;;;22.35;17.25;;;256.00;2252.80;;;;;;4953011;28;20059;-74
2021/04/03 05:36:16;;;;;;;29.17;19.65;;;256.20;2252.80;;;;;;4951000;28;20034;-74
2021/04/03 05:38:41;;;;;;;23.40;17.48;;;256.00;2252.80;;;;;;4953076;28;20106;-73
2021/04/03 05:41:08;;;;;;;27.75;17.45;;;256.20;2252.80;;;;;;4935146;29;20130;-76
2021/04/03 05:43:35;;;;;;;24.45;17.77;;;256.20;2252.80;;;;;;4951239;28;20027;-73
2021/04/03 05:46:02;;;;;;;23.08;16.85;;;256.20;2252.80;;;;;;4937051;28;20057;-74
2021/04/03 05:48:28;;;;;;;23.00;16.98;;;256.40;2252.80;;;;;;4944632;28;20043;-73
2021/04/03 05:50:57;;;;;;;23.20;16.23;;;256.60;2252.80;;;;;;4948916;28;20035;-85
2021/04/03 05:53:23;;;;;;;22.20;16.50;;;256.50;2252.80;;;;;;4948866;28;20079;-80
2021/04/03 05:55:57;;;;;;;22.38;17.02;;;256.60;2252.80;;;;;;4951809;28;20027;-77
2021/04/03 05:58:23;;;;;;;23.67;16.23;;;256.50;2252.80;;;;;;4948759;28;20110;-82
2021/04/03 06:00:52;;;;;;;22.10;16.88;;;256.60;2252.80;;;;;;4940935;28;20175;-75
2021/04/03 06:03:18;;;;;;;27.30;18.35;;;256.50;2252.80;;;;;;4950036;28;20031;-78
2021/04/03 06:05:44;;;;;;;21.23;16.45;;;256.40;2252.80;;;;;;4952941;29;20097;-81
2021/04/03 06:08:11;;;;;;;25.05;18.88;;;256.60;2252.80;;;;;;4948261;28;20174;-76
2021/04/03 06:10:36;;;;;;;24.15;17.02;;;256.80;2252.80;;;;;;4947607;28;20085;-77
2021/04/03 06:13:02;;;;;;;24.38;17.30;;;256.50;2252.80;;;;;;4947389;28;20102;-77
2021/04/03 06:15:28;;;;;;;24.70;18.05;;;256.50;2252.80;;;;;;4945289;28;20489;-80
2021/04/03 06:17:58;;;;;;;22.48;17.23;;;256.40;2252.80;;;;;;4951667;28;20044;-80
2021/04/03 06:20:35;;;;;;;26.80;18.33;;;256.40;2252.80;;;;;;4938059;28;20063;-81
2021/04/03 06:23:01;;;;;;;82.28;53.80;;;256.30;2252.80;;;;;;4944584;28;20046;-75
2021/04/03 06:25:28;;;;;;;21.95;17.48;;;256.40;2252.80;;;;;;4952565;28;20082;-79
2021/04/03 06:28:14;;;;;;;28.15;19.80;;;256.20;2252.80;;;;;;4950310;28;20382;-74
2021/04/03 06:30:39;;;;;;;27.92;19.98;;;256.10;2252.80;;;;;;4947143;28;20046;-81
2021/04/03 06:33:16;;;;;;;37.13;22.63;;;256.00;2252.80;;;;;;4948455;29;20023;-74
2021/04/03 06:35:43;;;;;;;27.48;20.45;;;231.20;2252.80;;;;;;4939184;28;20020;-74
2021/04/03 06:38:22;;;;;;;25.40;18.85;;;256.00;2252.80;;;;;;4939056;28;20027;-80
2021/04/03 06:40:48;;;;;;;27.05;19.08;;;256.00;2252.80;;;;;;4949309;28;20113;-80
2021/04/03 06:43:16;;;;;;;24.35;18.02;;;231.30;2252.80;;;;;;4943709;28;20024;-81
2021/04/03 06:45:44;;;;;;;23.15;17.15;;;256.10;2252.80;;;;;;4942477;28;20083;-79
2021/04/03 06:48:12;;;;;;;33.85;24.42;;;256.10;2252.80;;;;;;4941879;28;20039;-73
2021/04/03 06:50:47;;;;;;;32.10;21.30;;;231.00;2252.80;;;;;;4948205;28;20026;-79
2021/04/03 06:53:15;;;;;;;27.15;19.08;;;231.30;2252.80;;;;;;4941891;29;20432;-81
2021/04/03 06:55:42;;;;;;;30.35;21.48;;;231.20;2252.80;;;;;;4951350;28;20090;-83
2021/04/03 06:58:12;;;;;;;35.05;23.75;;;231.20;2252.80;;;;;;4943409;28;20059;-76
2021/04/03 07:00:40;;;;;;;37.00;26.67;;;231.20;2252.80;;;;;;4919389;29;20032;-74
2021/04/03 07:03:10;;;;;;;43.83;31.90;;;231.20;2252.80;;;;;;4949776;28;20043;-71
2021/04/03 07:05:37;;;;;;;34.38;25.70;;;231.30;2252.80;;;;;;4942955;28;20107;-76
2021/04/03 07:08:05;;;;;;;36.20;25.45;;;256.10;2252.80;;;;;;4952139;28;20059;-84
2021/04/03 07:10:32;;;;;;;30.67;22.63;;;231.20;2252.80;;;;;;4948409;28;20098;-74
2021/04/03 07:12:59;;;;;;;27.05;19.35;;;231.30;2252.80;;;;;;4952885;28;20492;-87
2021/04/03 07:15:25;;;;;;;32.25;17.73;;;256.10;2252.80;;;;;;4951477;28;20048;-87
2021/04/03 07:17:52;;;;;;;25.73;18.88;;;231.20;2252.80;;;;;;4950528;28;20572;-76
2021/04/03 07:20:21;;;;;;;26.02;18.70;;;231.10;2252.80;;;;;;4941697;28;20106;-76
2021/04/03 07:22:57;;;;;;;21.02;16.60;;;231.30;2252.80;;;;;;4941873;28;20048;-87
2021/04/03 07:25:26;;;;;;;24.20;18.25;;;231.30;2252.80;;;;;;4947536;28;20042;-86
2021/04/03 07:27:52;;;;;;;23.90;17.80;;;231.30;2252.80;;;;;;4946677;28;20028;-87
2021/04/03 07:30:36;;;;;;;23.42;17.50;;;256.10;2252.80;;;;;;4943775;28;20574;-82
2021/04/03 07:33:08;;;;;;;;;;;256.00;2252.80;;;;;;4958422;28;20037;-87
2021/04/03 07:36:00;;;;;;;21.17;16.33;;;256.20;2252.80;;;;;;4951667;28;19933;-86
2021/04/03 07:38:31;;;;;;;24.67;17.60;;;256.30;2252.80;;;;;;4881772;29;20087;-83
2021/04/03 07:40:59;;;;;;;24.48;17.80;;;256.40;2252.80;;;;;;4868867;29;20376;-79
2021/04/03 07:43:42;;;;;;;24.38;18.67;;;256.30;2252.80;;;;;;4883881;29;20063;-80
2021/04/03 07:46:09;;;;;;;24.33;18.40;;;256.20;2252.80;;;;;;4878245;29;20039;-87
2021/04/03 07:48:40;;;;;;;24.13;18.23;;;256.10;2252.80;;;;;;4856553;29;20491;-81
2021/04/03 07:51:08;;;;;;;20.92;16.80;;;256.10;2252.80;;;;;;4880677;29;20098;-80
2021/04/03 07:53:43;;;;;;;26.02;17.00;;;256.10;2252.80;;;;;;4875637;29;20139;-85
2021/04/03 07:56:10;;;;;;;31.52;23.88;;;256.10;2252.80;;;;;;4878341;29;20041;-77
2021/04/03 07:58:37;;;;;;;46.70;37.85;;;256.10;2252.80;;;;;;4870468;29;20037;-85
2021/04/03 08:01:06;;;;;;;104.65;93.75;;;231.30;2252.80;;;;;;4871587;29;20029;-80
2021/04/03 08:03:33;;;;;;;32.63;28.80;;;256.10;2252.80;;;;;;4874532;29;20447;-80
2021/04/03 08:06:04;;;;;;;19.90;15.02;;;256.20;2252.80;;;;;;4875859;29;20025;-77
2021/04/03 08:08:32;;;;;;;21.90;16.98;;;256.30;2252.80;;;;;;4876155;29;20124;-79
2021/04/03 08:11:17;;;;;;;27.85;23.08;;;256.10;2252.80;;;;;;4871301;29;20029;-77
2021/04/03 08:13:48;;;;;;;46.10;37.30;;;256.30;2252.80;;;;;;4877247;29;20044;-85
2021/04/03 08:16:17;;;;;;;73.90;64.85;;;256.40;2252.80;;;;;;4931756;28;20500;-82
2021/04/03 08:18:48;;;;;;;45.63;31.27;;;256.30;2252.80;;;;;;4948399;28;20441;-86
2021/04/03 08:21:14;;;;;;;45.47;30.15;;;256.10;2252.80;;;;;;4939541;28;20027;-81
2021/04/03 08:23:44;;;;;;;35.28;29.55;;;256.30;2252.80;;;;;;4956618;28;20035;-85
2021/04/03 08:26:10;;;;;;;25.23;21.88;;;256.40;2252.80;;;;;;4952465;28;20111;-84
2021/04/03 08:28:37;;;;;;;22.05;18.33;;;256.40;2252.80;;;;;;4939666;28;20131;-86
2021/04/03 08:31:12;;;;;;;34.38;30.77;;;256.50;2252.80;;;;;;4942492;28;20028;-77
2021/04/03 08:33:38;;;;;;;18.33;12.80;;;256.50;2252.80;;;;;;4944598;28;20030;-81
2021/04/03 08:36:11;;;;;;;18.42;13.10;;;256.50;2252.80;;;;;;4937842;28;20772;-77
2021/04/03 08:38:38;;;;;;;24.17;21.60;;;256.50;2252.80;;;;;;4946738;28;20106;-81
2021/04/03 08:41:04;;;;;;;20.55;16.88;;;256.40;2252.80;;;;;;4935932;28;20843;-85
2021/04/03 08:43:31;;;;;;;20.38;16.85;;;256.40;2252.80;;;;;;4935668;28;20106;-85
2021/04/03 08:46:08;;;;;;;21.13;15.80;;;256.40;2252.80;;;;;;4941065;29;20077;-78
2021/04/03 08:48:36;;;;;;;29.52;21.02;;;256.40;2252.80;;;;;;4941295;28;20021;-79
2021/04/03 08:51:04;;;;;;;36.10;27.77;;;256.30;2252.80;;;;;;4940608;28;20377;-79
2021/04/03 08:53:41;;;;;;;208.45;186.30;;;256.50;2252.80;;;;;;4945571;28;20027;-78
2021/04/03 08:56:08;;;;;;;30.27;27.10;;;256.20;2252.80;;;;;;4953241;28;20028;-77
2021/04/03 08:58:36;;;;;;;21.85;16.08;;;256.40;2252.80;;;;;;4935712;28;20024;-78
2021/04/03 09:01:03;;;;;;;19.10;14.68;;;256.40;2252.80;;;;;;4936988;28;20055;-78
2021/04/03 09:03:29;;;;;;;21.48;16.95;;;256.50;2252.80;;;;;;4941292;28;20072;-77
2021/04/03 09:05:55;;;;;;;22.90;19.50;;;256.50;2252.80;;;;;;4944041;28;20476;-78
2021/04/03 09:08:21;;;;;;;20.42;16.30;;;256.50;2252.80;;;;;;4941517;28;20038;-85
2021/04/03 09:10:53;;;;;;;43.85;39.05;;;256.40;2252.80;;;;;;4939567;28;20028;-88
2021/04/03 09:13:19;;;;;;;18.02;15.93;;;256.60;2252.80;;;;;;4937984;28;20031;-79
2021/04/03 09:15:47;;;;;;;17.98;14.27;;;256.40;2252.80;;;;;;4948462;28;20835;-87
2021/04/03 09:18:13;;;;;;;14.93;11.65;;;256.50;2252.80;;;;;;4940231;28;20492;-85
2021/04/03 09:20:50;;;;;;;15.25;12.13;;;256.50;2252.80;;;;;;4938943;28;20027;-81
2021/04/03 09:23:22;;;;;;;62.95;51.67;;;256.60;2252.80;;;;;;4935337;28;20083;-82
2021/04/03 09:26:03;;;;;;;24.92;21.63;;;256.70;2252.80;;;;;;4943443;28;20034;-81
2021/04/03 09:28:44;;;;;;;16.48;13.93;;;256.70;2252.80;;;;;;4946559;28;20385;-85
2021/04/03 09:31:11;;;;;;;16.23;12.77;;;256.90;2252.80;;;;;;5001797;23;20055;-88
2021/04/03 09:33:45;;;;;;;20.95;16.10;;;256.90;2252.80;;;;;;4953077;28;20031;-76
2021/04/03 09:36:13;;;;;;;19.48;13.57;;;281.60;2278.40;;;;;;4953511;28;20031;-81
2021/04/03 09:38:39;;;;;;;29.23;23.98;;;281.80;2278.40;;;;;;4953001;28;20023;-79
2021/04/03 09:41:25;;;;;;;32.72;21.75;;;281.80;2278.40;;;;;;4936819;29;20019;-78
2021/04/03 09:43:53;;;;;;;18.45;12.85;;;281.80;2278.40;;;;;;4939379;29;20377;-79
2021/04/03 09:46:19;;;;;;;23.13;20.55;;;281.90;2278.40;;;;;;4952936;29;20020;-80
2021/04/03 09:48:46;;;;;;;22.85;19.27;;;282.10;2278.40;;;;;;4953322;28;20027;-84
2021/04/03 09:51:12;;;;;;;15.27;11.65;;;282.10;2278.40;;;;;;4952128;28;20445;-83
2021/04/03 09:53:38;;;;;;;34.00;14.23;;;282.10;2278.40;;;;;;4952857;29;20023;-73
2021/04/03 09:56:05;;;;;;;24.70;15.45;;;282.00;2278.40;;;;;;4951957;28;20042;-75
2021/04/03 09:58:31;;;;;;;19.70;13.02;;;282.10;2278.40;;;;;;4953741;28;20035;-80
2021/04/03 10:00:56;;;;;;;22.92;16.60;;;282.00;2278.40;;;;;;4952964;28;20544;-80
2021/04/03 10:03:22;;;;;;;23.80;17.00;;;281.90;2278.40;;;;;;4953174;28;20102;-80
2021/04/03 10:05:48;;;;;;;29.50;19.17;;;282.10;2278.40;;;;;;4952851;28;20501;-78
2021/04/03 10:08:14;;;;;;;79.57;22.58;;;282.30;2278.40;;;;;;4953683;28;20028;-79
2021/04/03 10:10:40;;;;;;;24.70;18.58;;;282.40;2278.40;;;;;;4963160;28;20031;-78
2021/04/03 10:13:07;;;;;;;20.65;15.73;;;282.50;2278.40;;;;;;4953329;29;20027;-81
2021/04/03 10:15:34;;;;;;;22.00;17.13;;;282.50;2278.40;;;;;;4953413;28;20035;-78
2021/04/03 10:17:59;;;;;;;21.25;16.42;;;282.40;2278.40;;;;;;4956638;28;20035;-83
2021/04/03 10:20:26;;;;;;;18.33;15.73;;;282.20;2278.40;;;;;;4949366;28;20082;-90
2021/04/03 10:22:52;;;;;;;19.85;15.57;;;282.10;2278.40;;;;;;4954471;28;20027;-81
2021/04/03 10:25:18;;;;;;;18.48;15.15;;;282.10;2278.40;;;;;;4947368;28;20042;-79
2021/04/03 10:27:44;;;;;;;20.15;15.90;;;282.10;2278.40;;;;;;4952542;28;20039;-79
2021/04/03 10:30:11;;;;;;;21.35;15.52;;;282.10;2278.40;;;;;;4964945;28;20051;-83
2021/04/03 10:32:37;;;;;;;17.98;15.00;;;281.80;2278.40;;;;;;4961627;28;20388;-92
2021/04/03 10:35:04;;;;;;;19.23;15.68;;;282.10;2278.40;;;;;;4958128;28;20410;-75
2021/04/03 10:37:29;;;;;;;18.48;14.75;;;282.10;2278.40;;;;;;4951568;28;20031;-82
2021/04/03 10:39:55;;;;;;;22.20;15.63;;;282.10;2278.40;;;;;;4958021;28;20030;-75
2021/04/03 10:42:21;;;;;;;19.38;15.20;;;282.30;2278.40;;;;;;4958633;28;20094;-83
2021/04/03 10:44:47;;;;;;;15.43;13.27;;;282.30;2278.40;;;;;;4954024;28;20022;-76
2021/04/03 10:47:13;;;;;;;18.95;13.20;;;282.10;2278.40;;;;;;4955940;28;20086;-81
2021/04/03 10:49:38;;;;;;;19.90;12.85;;;282.10;2278.40;;;;;;4957485;28;20027;-79
2021/04/03 10:52:04;;;;;;;21.63;14.60;;;282.10;2278.40;;;;;;4958193;28;20126;-78
2021/04/03 10:54:30;;;;;;;27.63;15.40;;;282.20;2278.40;;;;;;4956295;28;20023;-77
2021/04/03 10:56:56;;;;;;;21.13;15.27;;;282.20;2278.40;;;;;;4956129;28;20049;-81
2021/04/03 10:59:22;;;;;;;26.15;15.57;;;282.30;2278.40;;;;;;4977008;28;20047;-79
2021/04/03 11:01:48;;;;;;;32.05;18.15;;;282.30;2278.40;;;;;;4955299;28;20041;-80
2021/04/03 11:04:14;;;;;;;30.90;19.13;;;282.30;2278.40;;;;;;4954377;28;20038;-84
2021/04/03 11:06:40;;;;;;;32.55;17.90;;;282.40;2278.40;;;;;;4958618;28;20394;-77
2021/04/03 11:09:06;;;;;;;26.27;17.80;;;282.40;2278.40;;;;;;4962849;28;20042;-78
2021/04/03 11:11:31;;;;;;;25.15;16.10;;;282.40;2278.40;;;;;;4960770;28;20023;-83
2021/04/03 11:13:58;;;;;;;24.30;15.13;;;282.40;2278.40;;;;;;4947345;28;20401;-79
2021/04/03 11:16:23;;;;;;;19.92;15.80;;;307.20;2304.00;;;;;;4957784;28;20042;-82
2021/04/03 11:18:49;;;;;;;24.67;16.83;;;307.20;2304.00;;;;;;4949579;28;20508;-80
2021/04/03 11:21:15;;;;;;;21.85;17.45;;;307.30;2304.00;;;;;;4964382;28;20043;-72
2021/04/03 11:23:41;;;;;;;24.40;18.25;;;307.30;2304.00;;;;;;4960972;28;20035;-74
2021/04/03 11:26:07;;;;;;;27.33;20.25;;;307.40;2304.00;;;;;;4973323;28;20102;-74
2021/04/03 11:28:32;;;;;;;22.98;18.15;;;307.30;2304.00;;;;;;4955269;28;20444;-72
2021/04/03 11:30:58;;;;;;;27.63;19.35;;;307.30;2304.00;;;;;;4953602;28;20054;-76
2021/04/03 11:33:26;;;;;;;27.05;20.40;;;307.30;2304.00;;;;;;4957284;28;20034;-76
2021/04/03 11:35:51;;;;;;;24.88;17.88;;;307.20;2304.00;;;;;;4949652;28;20034;-78
2021/04/03 11:38:19;;;;;;;24.23;17.58;;;307.20;2304.00;;;;;;4958820;28;20030;-79
2021/04/03 11:40:45;;;;;;;22.08;16.80;;;307.20;2304.00;;;;;;4955201;28;20023;-79
2021/04/03 11:43:11;;;;;;;21.70;17.17;;;307.30;2304.00;;;;;;4956132;28;20038;-78
2021/04/03 11:45:37;;;;;;;22.20;16.40;;;307.40;2304.00;;;;;;4954312;28;20023;-78
2021/04/03 11:48:03;;;;;;;23.58;17.83;;;307.30;2278.40;;;;;;4957159;28;20110;-75
2021/04/03 11:50:28;;;;;;;25.00;18.02;;;307.40;2304.00;;;;;;4948079;28;20027;-77
2021/04/03 11:52:54;;;;;;;27.30;17.58;;;307.40;2304.00;;;;;;4955607;28;20396;-76
2021/04/03 11:55:21;;;;;;;23.58;18.13;;;307.30;2304.00;;;;;;4958849;28;20039;-79
2021/04/03 11:57:47;;;;;;;33.28;19.85;;;307.30;2304.00;;;;;;4961177;28;20035;-81
2021/04/03 12:00:14;;;;;;;31.95;20.02;;;307.30;2304.00;;;;;;4961902;28;20493;-76
2021/04/03 12:02:40;;;;;;;31.92;19.77;;;307.20;2304.00;;;;;;4964634;28;20023;-76
2021/04/03 12:05:08;;;;;;;27.42;17.90;;;307.40;2304.00;;;;;;4968643;28;20058;-75